LFBL/LIG METAR and TAF weather

Enter ICAO airport designator
Station Type Date Time Source
LFBL METAR 2022/08/12 15:30 UTC NOAA

LFBL 121530Z AUTO 35006KT 290V040 CAVOK 35/09 Q1013 NOSIG


Station Type Date Time Source
LFBL Decoded METAR 2022/08/12 15:30 UTC NOAA

Limoges, France (LFBL) 45-52N 001-11E 402M
Aug 12, 2022 - 11:30 AM EDT / 2022.08.12 1530 UTC
Wind: from the N (350 degrees) at 7 MPH (6 KT) (direction variable):0
Visibility: greater than 7 mile(s):0
Temperature: 95 F (35 C)
Dew Point: 48 F (9 C)
Relative Humidity: 20%
Pressure (altimeter): 29.91 in. Hg (1013 hPa)
ob: LFBL 121530Z AUTO 35006KT 290V040 CAVOK 35/09 Q1013 NOSIG
cycle: 15

Station Type Date Time Source
LFBL TAF 2022/08/12 12:42 UTC NOAA

TAF TAF LFBL 121100Z 1212/1312 32010KT CAVOK
BECMG 1222/1224 VRB02KT
BECMG 1310/1312 28004KT

Example: see airport list